createdAt,value
2023-11-11T00:00:00.453Z,3
2023-11-11T00:04:00.712Z,5
2023-11-11T00:08:00.455Z,3
2023-11-11T00:12:00.497Z,3
2023-11-11T00:16:00.479Z,2
2023-11-11T00:20:00.531Z,3
2023-11-11T00:24:00.445Z,2
2023-11-11T00:28:00.447Z,4
2023-11-11T00:32:00.471Z,3
2023-11-11T00:36:00.454Z,4
2023-11-11T00:40:00.452Z,1
2023-11-11T00:44:00.474Z,2
2023-11-11T00:48:00.521Z,2
2023-11-11T00:52:00.489Z,2
2023-11-11T00:56:00.495Z,2
2023-11-11T01:00:00.492Z,3
2023-11-11T01:04:00.513Z,4
2023-11-11T01:08:00.455Z,4
2023-11-11T01:12:00.453Z,4
2023-11-11T01:16:00.482Z,3
2023-11-11T01:20:00.463Z,3
2023-11-11T01:24:00.454Z,3
2023-11-11T01:28:00.468Z,3
2023-11-11T01:32:00.455Z,2
2023-11-11T01:36:00.456Z,2
2023-11-11T01:40:00.497Z,3
2023-11-11T01:44:00.451Z,2
2023-11-11T01:48:00.484Z,3
2023-11-11T01:52:00.447Z,3
2023-11-11T01:56:00.467Z,3
2023-11-11T02:00:00.454Z,3
2023-11-11T02:04:00.595Z,2
2023-11-11T02:08:00.455Z,3
2023-11-11T02:12:00.475Z,2
2023-11-11T02:16:00.454Z,3
2023-11-11T02:20:00.476Z,4
2023-11-11T02:24:00.429Z,3
2023-11-11T02:28:00.490Z,3
2023-11-11T02:32:00.491Z,4
2023-11-11T02:36:00.467Z,6
2023-11-11T02:40:00.477Z,3
2023-11-11T02:44:00.448Z,3
2023-11-11T02:48:00.511Z,3
2023-11-11T02:52:00.453Z,3
2023-11-11T02:56:00.456Z,3
2023-11-11T03:00:00.569Z,3
2023-11-11T03:04:00.518Z,4
2023-11-11T03:08:00.469Z,4
2023-11-11T03:12:00.454Z,4
2023-11-11T03:16:00.711Z,4
2023-11-11T03:20:00.583Z,4
2023-11-11T03:24:00.454Z,3
2023-11-11T03:28:00.457Z,4
2023-11-11T03:32:00.441Z,3
2023-11-11T03:36:00.456Z,3
2023-11-11T03:40:00.461Z,3
2023-11-11T03:44:00.458Z,5
2023-11-11T03:48:00.475Z,3
2023-11-11T03:52:00.431Z,5
2023-11-11T03:56:00.455Z,2
2023-11-11T04:00:00.478Z,4
2023-11-11T04:04:00.698Z,4
2023-11-11T04:08:00.486Z,5
2023-11-11T04:12:00.482Z,4
2023-11-11T04:16:00.513Z,4
2023-11-11T04:20:00.559Z,4
2023-11-11T04:24:00.478Z,4
2023-11-11T04:28:00.488Z,3
2023-11-11T04:32:00.478Z,3
2023-11-11T04:36:00.473Z,4
2023-11-11T04:40:00.477Z,3
2023-11-11T04:44:00.512Z,4
2023-11-11T04:48:00.610Z,4
2023-11-11T04:52:00.508Z,5
2023-11-11T04:56:00.511Z,5
2023-11-11T05:00:00.480Z,3
2023-11-11T05:04:00.540Z,4
2023-11-11T05:08:00.495Z,3
2023-11-11T05:12:00.472Z,3
2023-11-11T05:16:00.842Z,5
2023-11-11T05:20:00.591Z,3
2023-11-11T05:24:00.444Z,4
2023-11-11T05:28:00.465Z,4
2023-11-11T05:32:00.460Z,4
2023-11-11T05:36:00.486Z,4
2023-11-11T05:40:00.518Z,4
2023-11-11T05:44:00.479Z,3
2023-11-11T05:48:00.489Z,3
2023-11-11T05:52:00.466Z,3
2023-11-11T05:56:00.466Z,3
2023-11-11T06:00:00.470Z,4
2023-11-11T06:04:00.532Z,3
2023-11-11T06:08:00.484Z,3
2023-11-11T06:12:00.461Z,4
2023-11-11T06:16:00.609Z,3
2023-11-11T06:20:00.468Z,3
2023-11-11T06:24:00.460Z,2
2023-11-11T06:28:00.466Z,3
2023-11-11T06:32:00.458Z,3
2023-11-11T06:36:00.464Z,3
2023-11-11T06:40:00.484Z,2
2023-11-11T06:44:00.476Z,3
2023-11-11T06:48:00.471Z,3
2023-11-11T06:52:00.493Z,3
2023-11-11T06:56:00.476Z,3
2023-11-11T07:00:00.440Z,4
2023-11-11T07:04:00.493Z,4
2023-11-11T07:08:00.460Z,3
2023-11-11T07:12:00.481Z,4
2023-11-11T07:16:00.583Z,6
2023-11-11T07:20:00.483Z,6
2023-11-11T07:24:00.473Z,4
2023-11-11T07:28:00.460Z,5
2023-11-11T07:32:00.521Z,5
2023-11-11T07:36:00.464Z,5
2023-11-11T07:40:00.474Z,3
2023-11-11T07:44:00.474Z,3
2023-11-11T07:48:00.505Z,4
2023-11-11T07:52:00.461Z,3
2023-11-11T07:56:00.449Z,4
2023-11-11T08:00:00.468Z,4
2023-11-11T08:04:00.608Z,3
2023-11-11T08:08:11.653Z,3
2023-11-11T08:12:00.504Z,4
2023-11-11T08:16:00.573Z,4
2023-11-11T08:20:00.450Z,4
2023-11-11T08:24:00.491Z,4
2023-11-11T08:28:00.545Z,3
2023-11-11T08:32:00.545Z,5
2023-11-11T08:36:00.484Z,4
2023-11-11T08:40:00.498Z,4
2023-11-11T08:44:00.444Z,5
2023-11-11T08:48:00.768Z,6
2023-11-11T08:52:00.522Z,6
2023-11-11T08:56:00.480Z,5
2023-11-11T09:00:00.531Z,9
2023-11-11T09:04:00.519Z,8
2023-11-11T09:08:00.449Z,7
2023-11-11T09:12:00.442Z,6
2023-11-11T09:16:00.529Z,6
2023-11-11T09:20:00.515Z,6
2023-11-11T09:24:00.481Z,6
2023-11-11T09:28:00.524Z,4
2023-11-11T09:32:00.480Z,5
2023-11-11T09:36:00.445Z,5
2023-11-11T09:40:00.565Z,5
2023-11-11T09:44:00.458Z,5
2023-11-11T09:48:00.473Z,6
2023-11-11T09:52:00.453Z,8
2023-11-11T09:56:00.639Z,8
2023-11-11T10:00:00.532Z,7
2023-11-11T10:04:00.633Z,17
2023-11-11T10:08:00.473Z,8
2023-11-11T10:12:00.482Z,9
2023-11-11T10:16:00.536Z,12
2023-11-11T10:20:00.577Z,10
2023-11-11T10:24:00.477Z,8
2023-11-11T10:28:00.472Z,8
2023-11-11T10:32:00.516Z,7
2023-11-11T10:36:00.457Z,6
2023-11-11T10:40:00.558Z,6
2023-11-11T10:44:00.478Z,4
2023-11-11T10:48:00.518Z,6
2023-11-11T10:52:00.456Z,6
2023-11-11T10:56:00.469Z,4
2023-11-11T11:00:00.618Z,5
2023-11-11T11:04:00.581Z,4
2023-11-11T11:08:00.473Z,4
2023-11-11T11:12:00.533Z,4
2023-11-11T11:16:00.456Z,4
2023-11-11T11:20:00.461Z,6
2023-11-11T11:24:00.470Z,5
2023-11-11T11:28:00.471Z,4
2023-11-11T11:32:00.520Z,5
2023-11-11T11:36:02.183Z,4
2023-11-11T11:40:00.484Z,5
2023-11-11T11:44:00.525Z,2
2023-11-11T11:48:00.507Z,5
2023-11-11T11:52:00.464Z,4
2023-11-11T11:56:00.502Z,3
2023-11-11T12:00:00.478Z,4
2023-11-11T12:04:00.641Z,5
2023-11-11T12:08:00.508Z,5
2023-11-11T12:12:00.501Z,3
2023-11-11T12:16:00.459Z,5
2023-11-11T12:20:00.578Z,4
2023-11-11T12:24:00.466Z,3
2023-11-11T12:28:00.500Z,4
2023-11-11T12:32:00.499Z,4
2023-11-11T12:36:00.469Z,5
2023-11-11T12:40:00.529Z,5
2023-11-11T12:44:00.510Z,3
2023-11-11T12:48:00.502Z,2
2023-11-11T12:52:01.331Z,9
2023-11-11T12:56:00.501Z,4
2023-11-11T13:00:00.499Z,4
2023-11-11T13:04:00.525Z,3
2023-11-11T13:08:00.507Z,3
2023-11-11T13:12:00.463Z,2
2023-11-11T13:16:00.466Z,5
2023-11-11T13:20:00.952Z,3
2023-11-11T13:24:00.481Z,2
2023-11-11T13:28:00.445Z,3
2023-11-11T13:32:00.595Z,4
2023-11-11T13:36:00.530Z,2
2023-11-11T13:40:02.239Z,2
2023-11-11T13:44:00.557Z,3
2023-11-11T13:48:00.490Z,3
2023-11-11T13:52:00.446Z,2
2023-11-11T13:56:00.509Z,3
2023-11-11T14:00:00.473Z,2
2023-11-11T14:04:00.655Z,3
2023-11-11T14:08:00.484Z,4
2023-11-11T14:12:00.472Z,3
2023-11-11T14:16:00.637Z,3
2023-11-11T14:20:00.682Z,3
2023-11-11T14:24:00.443Z,4
2023-11-11T14:28:00.475Z,3
2023-11-11T14:32:00.581Z,3
2023-11-11T14:36:00.461Z,6
2023-11-11T14:40:00.464Z,7
2023-11-11T14:44:00.497Z,7
2023-11-11T14:48:00.483Z,8
2023-11-11T14:52:00.467Z,6
2023-11-11T14:56:00.464Z,5
2023-11-11T15:00:00.476Z,4
2023-11-11T15:04:00.826Z,3
2023-11-11T15:08:00.632Z,5
2023-11-11T15:12:00.483Z,3
2023-11-11T15:16:00.443Z,2
2023-11-11T15:20:00.586Z,3
2023-11-11T15:24:00.473Z,2
2023-11-11T15:28:00.477Z,2
2023-11-11T15:32:00.660Z,1
2023-11-11T15:36:00.521Z,3
2023-11-11T15:40:00.511Z,4
2023-11-11T15:44:00.524Z,2
2023-11-11T15:48:00.574Z,2
2023-11-11T15:52:00.523Z,2
2023-11-11T15:56:00.591Z,2
2023-11-11T16:00:00.554Z,2
2023-11-11T16:04:00.596Z,2
2023-11-11T16:08:00.550Z,4
2023-11-11T16:12:00.475Z,2
2023-11-11T16:16:00.639Z,3
2023-11-11T16:20:00.622Z,3
2023-11-11T16:24:06.376Z,4
2023-11-11T16:28:00.466Z,3
2023-11-11T16:32:00.519Z,4
2023-11-11T16:36:00.453Z,4
2023-11-11T16:40:00.586Z,5
2023-11-11T16:44:00.465Z,5
2023-11-11T16:48:00.544Z,4
2023-11-11T16:52:00.485Z,6
2023-11-11T16:56:00.498Z,7
2023-11-11T17:00:00.460Z,8
2023-11-11T17:04:00.540Z,8
2023-11-11T17:08:00.542Z,8
2023-11-11T17:12:00.438Z,7
2023-11-11T17:16:00.471Z,5
2023-11-11T17:20:00.635Z,7
2023-11-11T17:24:00.453Z,8
2023-11-11T17:28:00.452Z,6
2023-11-11T17:32:00.521Z,7
2023-11-11T17:36:00.469Z,10
2023-11-11T17:40:00.451Z,8
2023-11-11T17:44:00.499Z,8
2023-11-11T17:48:00.504Z,8
2023-11-11T17:52:00.454Z,8
2023-11-11T17:56:00.505Z,9
2023-11-11T18:00:00.483Z,10
2023-11-11T18:04:00.467Z,10
2023-11-11T18:08:00.469Z,12
2023-11-11T18:12:00.456Z,11
2023-11-11T18:16:00.449Z,12
2023-11-11T18:20:02.918Z,10
2023-11-11T18:24:00.525Z,10
2023-11-11T18:28:00.449Z,12
2023-11-11T18:32:00.476Z,10
2023-11-11T18:36:00.462Z,9
2023-11-11T18:40:00.490Z,7
2023-11-11T18:44:00.488Z,9
2023-11-11T18:48:00.513Z,10
2023-11-11T18:52:00.488Z,11
2023-11-11T18:56:00.505Z,9
2023-11-11T19:00:00.482Z,18
2023-11-11T19:04:00.483Z,20
2023-11-11T19:08:00.524Z,21
2023-11-11T19:12:00.475Z,17
2023-11-11T19:16:00.579Z,13
2023-11-11T19:20:00.923Z,13
2023-11-11T19:24:00.495Z,8
2023-11-11T19:28:00.488Z,8
2023-11-11T19:32:00.522Z,9
2023-11-11T19:36:00.482Z,9
2023-11-11T19:40:00.458Z,9
2023-11-11T19:44:00.492Z,14
2023-11-11T19:48:00.492Z,13
2023-11-11T19:52:00.493Z,11
2023-11-11T19:56:00.538Z,7
2023-11-11T20:00:00.495Z,8
2023-11-11T20:04:00.619Z,9
2023-11-11T20:08:00.544Z,9
2023-11-11T20:12:00.469Z,10
2023-11-11T20:16:00.478Z,9
2023-11-11T20:20:00.554Z,7
2023-11-11T20:24:00.456Z,10
2023-11-11T20:28:00.462Z,9
2023-11-11T20:32:00.534Z,7
2023-11-11T20:36:00.456Z,7
2023-11-11T20:40:00.494Z,7
2023-11-11T20:44:00.472Z,8
2023-11-11T20:48:00.526Z,8
2023-11-11T20:52:00.488Z,7
2023-11-11T20:56:00.529Z,7
2023-11-11T21:00:00.493Z,7
2023-11-11T21:04:00.552Z,8
2023-11-11T21:08:00.535Z,7
2023-11-11T21:12:00.477Z,6
2023-11-11T21:16:00.495Z,8
2023-11-11T21:20:00.581Z,8
2023-11-11T21:24:00.469Z,9
2023-11-11T21:28:00.477Z,8
2023-11-11T21:32:00.615Z,7
2023-11-11T21:36:00.444Z,7
2023-11-11T21:40:00.467Z,7
2023-11-11T21:44:00.561Z,27
2023-11-11T21:48:00.517Z,53
2023-11-11T21:52:00.468Z,61
2023-11-11T21:56:00.578Z,23
2023-11-11T22:00:00.486Z,23
2023-11-11T22:04:00.568Z,17
2023-11-11T22:08:00.480Z,8
2023-11-11T22:12:01.537Z,8
2023-11-11T22:16:00.501Z,9
2023-11-11T22:20:00.519Z,9
2023-11-11T22:24:00.476Z,7
2023-11-11T22:28:00.443Z,7
2023-11-11T22:32:00.589Z,7
2023-11-11T22:36:00.467Z,8
2023-11-11T22:40:00.464Z,6
2023-11-11T22:44:00.542Z,6
2023-11-11T22:48:00.523Z,6
2023-11-11T22:52:00.487Z,6
2023-11-11T22:56:00.515Z,6
2023-11-11T23:00:00.461Z,9
2023-11-11T23:04:00.679Z,9
2023-11-11T23:08:00.483Z,7
2023-11-11T23:12:00.480Z,8
2023-11-11T23:16:00.490Z,8
2023-11-11T23:20:00.686Z,10
2023-11-11T23:24:00.475Z,10
2023-11-11T23:28:00.468Z,10
2023-11-11T23:32:00.525Z,11
2023-11-11T23:36:00.489Z,7
2023-11-11T23:40:00.466Z,9
2023-11-11T23:44:00.538Z,10
2023-11-11T23:48:00.575Z,8
2023-11-11T23:52:00.469Z,10
2023-11-11T23:56:00.618Z,10
